sensor_id;sensor_type;location;lat;lon;timestamp;P1;P2;P0
55043;PMS5003;54902;50.420;18.854;2024-03-25T00:00:30;15;15;10
55043;PMS5003;54902;50.420;18.854;2024-03-25T00:01:00;15;15;10
55043;PMS5003;54902;50.420;18.854;2024-03-25T00:01:31;15;15;10
55043;PMS5003;54902;50.420;18.854;2024-03-25T00:02:02;15;15;10
55043;PMS5003;54902;50.420;18.854;2024-03-25T00:02:33;15;15;10
55043;PMS5003;54902;50.420;18.854;2024-03-25T00:03:05;15;15;10
55043;PMS5003;54902;50.420;18.854;2024-03-25T00:03:35;15;15;10
55043;PMS5003;54902;50.420;18.854;2024-03-25T00:04:06;15;15;10
55043;PMS5003;54902;50.420;18.854;2024-03-25T00:04:37;15;15;10
55043;PMS5003;54902;50.420;18.854;2024-03-25T00:05:08;15;15;10
55043;PMS5003;54902;50.420;18.854;2024-03-25T00:05:40;15;15;10
55043;PMS5003;54902;50.420;18.854;2024-03-25T00:06:10;15;15;10
55043;PMS5003;54902;50.420;18.854;2024-03-25T00:06:41;15;15;10
55043;PMS5003;54902;50.420;18.854;2024-03-25T00:07:12;15;15;10
55043;PMS5003;54902;50.420;18.854;2024-03-25T00:07:43;15;15;10
55043;PMS5003;54902;50.420;18.854;2024-03-25T00:08:14;15;15;10
55043;PMS5003;54902;50.420;18.854;2024-03-25T00:08:45;15;15;10
55043;PMS5003;54902;50.420;18.854;2024-03-25T00:09:17;15;15;10
55043;PMS5003;54902;50.420;18.854;2024-03-25T00:09:48;7;7;5
55043;PMS5003;54902;50.420;18.854;2024-03-25T00:10:19;7;7;5
55043;PMS5003;54902;50.420;18.854;2024-03-25T00:10:50;7;7;5
55043;PMS5003;54902;50.420;18.854;2024-03-25T00:11:21;7;7;5
55043;PMS5003;54902;50.420;18.854;2024-03-25T00:11:52;7;7;5
55043;PMS5003;54902;50.420;18.854;2024-03-25T00:12:27;7;7;5
55043;PMS5003;54902;50.420;18.854;2024-03-25T00:12:58;7;7;5
55043;PMS5003;54902;50.420;18.854;2024-03-25T00:13:30;7;7;5
55043;PMS5003;54902;50.420;18.854;2024-03-25T00:14:01;7;7;5
55043;PMS5003;54902;50.420;18.854;2024-03-25T00:14:32;13;13;10
55043;PMS5003;54902;50.420;18.854;2024-03-25T00:15:03;13;13;10
55043;PMS5003;54902;50.420;18.854;2024-03-25T00:15:34;13;13;10
55043;PMS5003;54902;50.420;18.854;2024-03-25T00:16:08;13;13;10
55043;PMS5003;54902;50.420;18.854;2024-03-25T00:16:38;13;13;10
55043;PMS5003;54902;50.420;18.854;2024-03-25T00:17:09;13;13;10
55043;PMS5003;54902;50.420;18.854;2024-03-25T00:17:41;13;13;10
55043;PMS5003;54902;50.420;18.854;2024-03-25T00:18:12;13;13;10
55043;PMS5003;54902;50.420;18.854;2024-03-25T00:18:43;13;13;10
55043;PMS5003;54902;50.420;18.854;2024-03-25T00:19:14;13;13;10
55043;PMS5003;54902;50.420;18.854;2024-03-25T00:19:46;13;13;10
55043;PMS5003;54902;50.420;18.854;2024-03-25T00:20:21;13;13;10
55043;PMS5003;54902;50.420;18.854;2024-03-25T00:20:52;13;13;10
55043;PMS5003;54902;50.420;18.854;2024-03-25T00:21:22;13;13;10
55043;PMS5003;54902;50.420;18.854;2024-03-25T00:21:54;10;10;8
55043;PMS5003;54902;50.420;18.854;2024-03-25T00:22:25;10;10;8
55043;PMS5003;54902;50.420;18.854;2024-03-25T00:22:57;10;10;8
55043;PMS5003;54902;50.420;18.854;2024-03-25T00:23:27;10;10;8
55043;PMS5003;54902;50.420;18.854;2024-03-25T00:23:59;10;10;8
55043;PMS5003;54902;50.420;18.854;2024-03-25T00:24:31;10;10;8
55043;PMS5003;54902;50.420;18.854;2024-03-25T00:25:02;21;14;10
55043;PMS5003;54902;50.420;18.854;2024-03-25T00:25:33;21;14;10
55043;PMS5003;54902;50.420;18.854;2024-03-25T00:26:04;21;14;10
55043;PMS5003;54902;50.420;18.854;2024-03-25T00:26:35;21;14;10
55043;PMS5003;54902;50.420;18.854;2024-03-25T00:27:05;21;14;10
55043;PMS5003;54902;50.420;18.854;2024-03-25T00:27:36;21;14;10
55043;PMS5003;54902;50.420;18.854;2024-03-25T00:28:07;21;14;10
55043;PMS5003;54902;50.420;18.854;2024-03-25T00:28:38;21;14;10
55043;PMS5003;54902;50.420;18.854;2024-03-25T00:29:09;21;14;10
55043;PMS5003;54902;50.420;18.854;2024-03-25T00:29:39;21;14;10
55043;PMS5003;54902;50.420;18.854;2024-03-25T00:30:11;7;6;5
55043;PMS5003;54902;50.420;18.854;2024-03-25T00:30:42;7;6;5
55043;PMS5003;54902;50.420;18.854;2024-03-25T00:31:13;7;6;5
55043;PMS5003;54902;50.420;18.854;2024-03-25T00:31:44;7;6;5
55043;PMS5003;54902;50.420;18.854;2024-03-25T00:32:15;7;6;5
55043;PMS5003;54902;50.420;18.854;2024-03-25T00:32:46;7;6;5
55043;PMS5003;54902;50.420;18.854;2024-03-25T00:33:17;7;6;5
55043;PMS5003;54902;50.420;18.854;2024-03-25T00:33:48;7;6;5
55043;PMS5003;54902;50.420;18.854;2024-03-25T00:34:19;7;6;5
55043;PMS5003;54902;50.420;18.854;2024-03-25T00:34:50;7;6;5
55043;PMS5003;54902;50.420;18.854;2024-03-25T00:35:20;12;10;9
55043;PMS5003;54902;50.420;18.854;2024-03-25T00:35:51;12;10;9
55043;PMS5003;54902;50.420;18.854;2024-03-25T00:36:22;12;10;9
55043;PMS5003;54902;50.420;18.854;2024-03-25T00:36:53;12;10;9
55043;PMS5003;54902;50.420;18.854;2024-03-25T00:37:24;12;10;9
55043;PMS5003;54902;50.420;18.854;2024-03-25T00:37:55;12;10;9
55043;PMS5003;54902;50.420;18.854;2024-03-25T00:38:26;12;10;9
55043;PMS5003;54902;50.420;18.854;2024-03-25T00:38:57;12;10;9
55043;PMS5003;54902;50.420;18.854;2024-03-25T00:39:28;12;10;9
55043;PMS5003;54902;50.420;18.854;2024-03-25T00:40:02;12;10;9
55043;PMS5003;54902;50.420;18.854;2024-03-25T00:40:34;12;10;9
55043;PMS5003;54902;50.420;18.854;2024-03-25T00:41:05;12;10;9
55043;PMS5003;54902;50.420;18.854;2024-03-25T00:41:36;12;10;9
55043;PMS5003;54902;50.420;18.854;2024-03-25T00:42:07;12;10;9
55043;PMS5003;54902;50.420;18.854;2024-03-25T00:42:38;12;10;9
55043;PMS5003;54902;50.420;18.854;2024-03-25T00:43:09;12;10;9
55043;PMS5003;54902;50.420;18.854;2024-03-25T00:43:40;12;10;9
55043;PMS5003;54902;50.420;18.854;2024-03-25T00:44:11;12;10;9
55043;PMS5003;54902;50.420;18.854;2024-03-25T00:44:42;12;10;9
55043;PMS5003;54902;50.420;18.854;2024-03-25T00:45:12;12;10;9
55043;PMS5003;54902;50.420;18.854;2024-03-25T00:45:43;12;10;9
55043;PMS5003;54902;50.420;18.854;2024-03-25T00:46:14;12;10;9
55043;PMS5003;54902;50.420;18.854;2024-03-25T00:46:45;12;10;9
55043;PMS5003;54902;50.420;18.854;2024-03-25T00:47:17;12;10;9
55043;PMS5003;54902;50.420;18.854;2024-03-25T00:47:48;12;10;9
55043;PMS5003;54902;50.420;18.854;2024-03-25T00:48:18;8;7;6
55043;PMS5003;54902;50.420;18.854;2024-03-25T00:48:49;8;7;6
55043;PMS5003;54902;50.420;18.854;2024-03-25T00:49:20;8;7;6
55043;PMS5003;54902;50.420;18.854;2024-03-25T00:49:52;8;7;6
55043;PMS5003;54902;50.420;18.854;2024-03-25T00:50:23;8;7;6
55043;PMS5003;54902;50.420;18.854;2024-03-25T00:50:54;9;8;6
55043;PMS5003;54902;50.420;18.854;2024-03-25T00:51:25;9;8;6
55043;PMS5003;54902;50.420;18.854;2024-03-25T00:51:56;9;8;6
55043;PMS5003;54902;50.420;18.854;2024-03-25T00:52:27;9;8;6
55043;PMS5003;54902;50.420;18.854;2024-03-25T00:52:58;9;8;6
55043;PMS5003;54902;50.420;18.854;2024-03-25T00:53:29;9;8;6
55043;PMS5003;54902;50.420;18.854;2024-03-25T00:54:00;9;8;6
55043;PMS5003;54902;50.420;18.854;2024-03-25T00:54:30;9;8;6
55043;PMS5003;54902;50.420;18.854;2024-03-25T00:55:01;9;8;6
55043;PMS5003;54902;50.420;18.854;2024-03-25T00:55:33;9;8;6
55043;PMS5003;54902;50.420;18.854;2024-03-25T00:56:05;12;10;7
55043;PMS5003;54902;50.420;18.854;2024-03-25T00:56:36;12;10;7
55043;PMS5003;54902;50.420;18.854;2024-03-25T00:57:07;7;6;4
55043;PMS5003;54902;50.420;18.854;2024-03-25T00:57:38;7;6;4
55043;PMS5003;54902;50.420;18.854;2024-03-25T00:58:09;7;6;4
55043;PMS5003;54902;50.420;18.854;2024-03-25T00:58:40;7;6;4
55043;PMS5003;54902;50.420;18.854;2024-03-25T00:59:11;7;6;4
55043;PMS5003;54902;50.420;18.854;2024-03-25T00:59:42;7;6;4
55043;PMS5003;54902;50.420;18.854;2024-03-25T01:00:13;7;6;4
55043;PMS5003;54902;50.420;18.854;2024-03-25T01:00:45;7;6;4
55043;PMS5003;54902;50.420;18.854;2024-03-25T01:01:16;12;12;8
55043;PMS5003;54902;50.420;18.854;2024-03-25T01:01:47;12;12;8
55043;PMS5003;54902;50.420;18.854;2024-03-25T01:02:18;12;12;8
55043;PMS5003;54902;50.420;18.854;2024-03-25T01:02:49;12;12;8
55043;PMS5003;54902;50.420;18.854;2024-03-25T01:03:19;5;5;3
55043;PMS5003;54902;50.420;18.854;2024-03-25T01:03:50;5;5;3
55043;PMS5003;54902;50.420;18.854;2024-03-25T01:04:21;5;5;3
55043;PMS5003;54902;50.420;18.854;2024-03-25T01:04:53;5;5;3
55043;PMS5003;54902;50.420;18.854;2024-03-25T01:05:26;5;5;3
55043;PMS5003;54902;50.420;18.854;2024-03-25T01:05:58;5;5;3
55043;PMS5003;54902;50.420;18.854;2024-03-25T01:06:28;2;2;1
55043;PMS5003;54902;50.420;18.854;2024-03-25T01:07:00;2;2;1
55043;PMS5003;54902;50.420;18.854;2024-03-25T01:07:31;3;3;2
55043;PMS5003;54902;50.420;18.854;2024-03-25T01:08:02;3;3;2
55043;PMS5003;54902;50.420;18.854;2024-03-25T01:08:34;3;3;2
55043;PMS5003;54902;50.420;18.854;2024-03-25T01:09:05;3;3;2
55043;PMS5003;54902;50.420;18.854;2024-03-25T01:09:37;3;3;2
55043;PMS5003;54902;50.420;18.854;2024-03-25T01:10:08;3;3;2
55043;PMS5003;54902;50.420;18.854;2024-03-25T01:10:39;3;3;2
55043;PMS5003;54902;50.420;18.854;2024-03-25T01:11:10;3;3;2
55043;PMS5003;54902;50.420;18.854;2024-03-25T01:11:41;6;6;5
55043;PMS5003;54902;50.420;18.854;2024-03-25T01:12:12;6;6;5
55043;PMS5003;54902;50.420;18.854;2024-03-25T01:12:43;6;6;5
55043;PMS5003;54902;50.420;18.854;2024-03-25T01:13:13;3;3;3
55043;PMS5003;54902;50.420;18.854;2024-03-25T01:13:44;3;3;3
55043;PMS5003;54902;50.420;18.854;2024-03-25T01:14:16;3;3;3
55043;PMS5003;54902;50.420;18.854;2024-03-25T01:14:47;3;3;3
55043;PMS5003;54902;50.420;18.854;2024-03-25T01:15:17;3;3;3
55043;PMS5003;54902;50.420;18.854;2024-03-25T01:15:48;3;3;3
55043;PMS5003;54902;50.420;18.854;2024-03-25T01:16:19;3;3;3
55043;PMS5003;54902;50.420;18.854;2024-03-25T01:16:50;3;3;3
55043;PMS5003;54902;50.420;18.854;2024-03-25T01:17:21;3;3;3
55043;PMS5003;54902;50.420;18.854;2024-03-25T01:17:52;3;3;3
55043;PMS5003;54902;50.420;18.854;2024-03-25T01:18:23;3;3;3
55043;PMS5003;54902;50.420;18.854;2024-03-25T01:18:54;3;3;3
55043;PMS5003;54902;50.420;18.854;2024-03-25T01:19:24;3;3;3
55043;PMS5003;54902;50.420;18.854;2024-03-25T01:19:56;3;3;3
55043;PMS5003;54902;50.420;18.854;2024-03-25T01:20:27;3;3;3
55043;PMS5003;54902;50.420;18.854;2024-03-25T01:20:58;3;3;3
55043;PMS5003;54902;50.420;18.854;2024-03-25T01:21:29;3;3;3
55043;PMS5003;54902;50.420;18.854;2024-03-25T01:22:00;4;4;2
55043;PMS5003;54902;50.420;18.854;2024-03-25T01:22:31;4;4;2
55043;PMS5003;54902;50.420;18.854;2024-03-25T01:23:02;4;4;2
55043;PMS5003;54902;50.420;18.854;2024-03-25T01:23:33;4;4;2
55043;PMS5003;54902;50.420;18.854;2024-03-25T01:24:04;4;4;2
55043;PMS5003;54902;50.420;18.854;2024-03-25T01:24:35;4;4;2
55043;PMS5003;54902;50.420;18.854;2024-03-25T01:25:06;4;4;2
55043;PMS5003;54902;50.420;18.854;2024-03-25T01:25:38;4;4;2
55043;PMS5003;54902;50.420;18.854;2024-03-25T01:26:08;4;4;2
55043;PMS5003;54902;50.420;18.854;2024-03-25T01:26:40;4;4;2
55043;PMS5003;54902;50.420;18.854;2024-03-25T01:27:11;9;9;4
55043;PMS5003;54902;50.420;18.854;2024-03-25T01:27:42;9;9;4
55043;PMS5003;54902;50.420;18.854;2024-03-25T01:28:13;9;9;4
55043;PMS5003;54902;50.420;18.854;2024-03-25T01:28:43;9;9;4
55043;PMS5003;54902;50.420;18.854;2024-03-25T01:29:14;9;9;4
55043;PMS5003;54902;50.420;18.854;2024-03-25T01:29:45;9;9;4
55043;PMS5003;54902;50.420;18.854;2024-03-25T01:30:16;9;9;4
55043;PMS5003;54902;50.420;18.854;2024-03-25T01:30:49;9;9;4
55043;PMS5003;54902;50.420;18.854;2024-03-25T01:31:20;9;9;4
55043;PMS5003;54902;50.420;18.854;2024-03-25T01:31:51;9;9;4
55043;PMS5003;54902;50.420;18.854;2024-03-25T01:32:22;3;3;2
55043;PMS5003;54902;50.420;18.854;2024-03-25T01:32:53;3;3;2
55043;PMS5003;54902;50.420;18.854;2024-03-25T01:33:23;3;3;2
55043;PMS5003;54902;50.420;18.854;2024-03-25T01:33:54;3;3;2
55043;PMS5003;54902;50.420;18.854;2024-03-25T01:34:25;3;3;2
55043;PMS5003;54902;50.420;18.854;2024-03-25T01:34:56;3;3;2
55043;PMS5003;54902;50.420;18.854;2024-03-25T01:35:27;3;3;2
55043;PMS5003;54902;50.420;18.854;2024-03-25T01:35:58;3;3;2
55043;PMS5003;54902;50.420;18.854;2024-03-25T01:36:30;3;3;2
55043;PMS5003;54902;50.420;18.854;2024-03-25T01:37:01;3;3;2
55043;PMS5003;54902;50.420;18.854;2024-03-25T01:37:33;6;6;4
55043;PMS5003;54902;50.420;18.854;2024-03-25T01:38:04;6;6;4
55043;PMS5003;54902;50.420;18.854;2024-03-25T01:38:35;6;6;4
55043;PMS5003;54902;50.420;18.854;2024-03-25T01:39:06;6;6;4
55043;PMS5003;54902;50.420;18.854;2024-03-25T01:39:37;6;6;4
55043;PMS5003;54902;50.420;18.854;2024-03-25T01:40:09;6;6;4
55043;PMS5003;54902;50.420;18.854;2024-03-25T01:40:40;6;6;4
55043;PMS5003;54902;50.420;18.854;2024-03-25T01:41:12;6;6;4
55043;PMS5003;54902;50.420;18.854;2024-03-25T01:41:46;6;6;4
55043;PMS5003;54902;50.420;18.854;2024-03-25T01:42:16;6;6;4
55043;PMS5003;54902;50.420;18.854;2024-03-25T01:43:31;6;6;4
55043;PMS5003;54902;50.420;18.854;2024-03-25T01:44:02;6;6;4
55043;PMS5003;54902;50.420;18.854;2024-03-25T01:44:33;6;6;4
55043;PMS5003;54902;50.420;18.854;2024-03-25T01:45:05;6;6;4
55043;PMS5003;54902;50.420;18.854;2024-03-25T01:45:37;6;6;4
55043;PMS5003;54902;50.420;18.854;2024-03-25T01:46:08;6;6;4
55043;PMS5003;54902;50.420;18.854;2024-03-25T01:46:40;6;6;4
55043;PMS5003;54902;50.420;18.854;2024-03-25T01:47:13;6;6;4
55043;PMS5003;54902;50.420;18.854;2024-03-25T01:47:43;6;6;4
55043;PMS5003;54902;50.420;18.854;2024-03-25T01:48:16;6;6;4
55043;PMS5003;54902;50.420;18.854;2024-03-25T01:48:47;6;6;4
55043;PMS5003;54902;50.420;18.854;2024-03-25T01:49:20;6;6;4
55043;PMS5003;54902;50.420;18.854;2024-03-25T01:49:51;2;2;2
55043;PMS5003;54902;50.420;18.854;2024-03-25T01:50:26;2;2;2
55043;PMS5003;54902;50.420;18.854;2024-03-25T01:50:57;2;2;2
55043;PMS5003;54902;50.420;18.854;2024-03-25T01:51:29;2;2;2
55043;PMS5003;54902;50.420;18.854;2024-03-25T01:52:00;2;2;2
55043;PMS5003;54902;50.420;18.854;2024-03-25T01:52:31;2;2;2
55043;PMS5003;54902;50.420;18.854;2024-03-25T01:53:02;2;2;2
55043;PMS5003;54902;50.420;18.854;2024-03-25T01:53:33;2;2;2
55043;PMS5003;54902;50.420;18.854;2024-03-25T01:54:04;2;2;2
55043;PMS5003;54902;50.420;18.854;2024-03-25T01:54:37;3;3;2
55043;PMS5003;54902;50.420;18.854;2024-03-25T01:55:08;3;3;2
55043;PMS5003;54902;50.420;18.854;2024-03-25T01:55:46;3;3;2
55043;PMS5003;54902;50.420;18.854;2024-03-25T01:56:19;3;3;2
55043;PMS5003;54902;50.420;18.854;2024-03-25T01:56:52;3;3;2
55043;PMS5003;54902;50.420;18.854;2024-03-25T01:57:26;3;3;2
55043;PMS5003;54902;50.420;18.854;2024-03-25T01:57:57;3;3;2
55043;PMS5003;54902;50.420;18.854;2024-03-25T01:58:28;3;3;2
55043;PMS5003;54902;50.420;18.854;2024-03-25T01:59:01;5;5;3
55043;PMS5003;54902;50.420;18.854;2024-03-25T01:59:33;5;5;3
55043;PMS5003;54902;50.420;18.854;2024-03-25T02:00:05;5;5;3
55043;PMS5003;54902;50.420;18.854;2024-03-25T02:00:36;5;5;3
55043;PMS5003;54902;50.420;18.854;2024-03-25T02:01:09;5;5;3
55043;PMS5003;54902;50.420;18.854;2024-03-25T02:01:45;5;5;3
55043;PMS5003;54902;50.420;18.854;2024-03-25T02:02:16;5;5;3
55043;PMS5003;54902;50.420;18.854;2024-03-25T02:02:47;5;5;3
55043;PMS5003;54902;50.420;18.854;2024-03-25T02:03:19;5;5;3
55043;PMS5003;54902;50.420;18.854;2024-03-25T02:03:50;5;5;3
55043;PMS5003;54902;50.420;18.854;2024-03-25T02:04:23;6;6;4
55043;PMS5003;54902;50.420;18.854;2024-03-25T02:04:55;6;6;4
55043;PMS5003;54902;50.420;18.854;2024-03-25T02:05:26;6;6;4
55043;PMS5003;54902;50.420;18.854;2024-03-25T02:05:59;6;6;4
55043;PMS5003;54902;50.420;18.854;2024-03-25T02:06:35;6;6;4
55043;PMS5003;54902;50.420;18.854;2024-03-25T02:07:07;6;6;4
55043;PMS5003;54902;50.420;18.854;2024-03-25T02:07:40;6;6;4
55043;PMS5003;54902;50.420;18.854;2024-03-25T02:08:12;6;6;4
55043;PMS5003;54902;50.420;18.854;2024-03-25T02:08:43;6;6;4
55043;PMS5003;54902;50.420;18.854;2024-03-25T02:09:14;6;6;4
55043;PMS5003;54902;50.420;18.854;2024-03-25T02:09:46;2;2;2
55043;PMS5003;54902;50.420;18.854;2024-03-25T02:10:18;2;2;2
55043;PMS5003;54902;50.420;18.854;2024-03-25T02:10:51;2;2;2
55043;PMS5003;54902;50.420;18.854;2024-03-25T02:11:23;2;2;2
55043;PMS5003;54902;50.420;18.854;2024-03-25T02:11:54;2;2;2
55043;PMS5003;54902;50.420;18.854;2024-03-25T02:12:25;2;2;2
55043;PMS5003;54902;50.420;18.854;2024-03-25T02:12:57;2;2;2
55043;PMS5003;54902;50.420;18.854;2024-03-25T02:13:27;2;2;2
55043;PMS5003;54902;50.420;18.854;2024-03-25T02:13:58;2;2;2
55043;PMS5003;54902;50.420;18.854;2024-03-25T02:14:29;2;2;2
55043;PMS5003;54902;50.420;18.854;2024-03-25T02:15:00;4;4;3
55043;PMS5003;54902;50.420;18.854;2024-03-25T02:15:31;4;4;3
55043;PMS5003;54902;50.420;18.854;2024-03-25T02:16:02;4;4;3
55043;PMS5003;54902;50.420;18.854;2024-03-25T02:16:34;4;4;3
55043;PMS5003;54902;50.420;18.854;2024-03-25T02:17:05;4;4;3
55043;PMS5003;54902;50.420;18.854;2024-03-25T02:17:37;4;4;3
55043;PMS5003;54902;50.420;18.854;2024-03-25T02:18:08;4;4;3
55043;PMS5003;54902;50.420;18.854;2024-03-25T02:18:39;4;4;3
55043;PMS5003;54902;50.420;18.854;2024-03-25T02:19:10;4;4;3
55043;PMS5003;54902;50.420;18.854;2024-03-25T02:19:43;4;4;3
55043;PMS5003;54902;50.420;18.854;2024-03-25T02:20:14;4;4;3
55043;PMS5003;54902;50.420;18.854;2024-03-25T02:20:46;4;4;3
55043;PMS5003;54902;50.420;18.854;2024-03-25T02:21:17;4;4;3
55043;PMS5003;54902;50.420;18.854;2024-03-25T02:21:48;1;1;1
55043;PMS5003;54902;50.420;18.854;2024-03-25T02:22:19;1;1;1
55043;PMS5003;54902;50.420;18.854;2024-03-25T02:22:50;1;1;1
55043;PMS5003;54902;50.420;18.854;2024-03-25T02:23:21;1;1;1
55043;PMS5003;54902;50.420;18.854;2024-03-25T02:23:52;1;1;1
55043;PMS5003;54902;50.420;18.854;2024-03-25T02:24:25;1;1;1
55043;PMS5003;54902;50.420;18.854;2024-03-25T02:24:58;1;1;1
55043;PMS5003;54902;50.420;18.854;2024-03-25T02:25:31;1;1;1
55043;PMS5003;54902;50.420;18.854;2024-03-25T02:26:04;1;1;1
55043;PMS5003;54902;50.420;18.854;2024-03-25T02:26:34;1;1;1
55043;PMS5003;54902;50.420;18.854;2024-03-25T02:27:06;1;1;1
55043;PMS5003;54902;50.420;18.854;2024-03-25T02:27:40;1;1;1
55043;PMS5003;54902;50.420;18.854;2024-03-25T02:28:11;1;1;1
55043;PMS5003;54902;50.420;18.854;2024-03-25T02:28:42;1;1;1
55043;PMS5003;54902;50.420;18.854;2024-03-25T02:29:13;1;1;1
55043;PMS5003;54902;50.420;18.854;2024-03-25T02:29:43;1;1;1
55043;PMS5003;54902;50.420;18.854;2024-03-25T02:30:14;1;1;1
55043;PMS5003;54902;50.420;18.854;2024-03-25T02:30:47;1;1;1
55043;PMS5003;54902;50.420;18.854;2024-03-25T02:31:18;1;1;1
55043;PMS5003;54902;50.420;18.854;2024-03-25T02:31:48;1;1;1
55043;PMS5003;54902;50.420;18.854;2024-03-25T02:32:23;1;1;1
55043;PMS5003;54902;50.420;18.854;2024-03-25T02:32:53;1;1;1
55043;PMS5003;54902;50.420;18.854;2024-03-25T02:33:24;1;1;1
55043;PMS5003;54902;50.420;18.854;2024-03-25T02:33:55;1;1;1
55043;PMS5003;54902;50.420;18.854;2024-03-25T02:34:26;1;1;1
55043;PMS5003;54902;50.420;18.854;2024-03-25T02:34:57;1;1;1
55043;PMS5003;54902;50.420;18.854;2024-03-25T02:35:28;1;1;1
55043;PMS5003;54902;50.420;18.854;2024-03-25T02:36:00;1;1;1
55043;PMS5003;54902;50.420;18.854;2024-03-25T02:36:32;1;1;1
55043;PMS5003;54902;50.420;18.854;2024-03-25T02:37:03;1;1;1
55043;PMS5003;54902;50.420;18.854;2024-03-25T02:37:34;1;1;1
55043;PMS5003;54902;50.420;18.854;2024-03-25T02:38:05;1;1;1
55043;PMS5003;54902;50.420;18.854;2024-03-25T02:38:37;1;1;1
55043;PMS5003;54902;50.420;18.854;2024-03-25T02:39:08;1;1;1
55043;PMS5003;54902;50.420;18.854;2024-03-25T02:39:40;1;1;1
55043;PMS5003;54902;50.420;18.854;2024-03-25T02:40:11;1;1;1
55043;PMS5003;54902;50.420;18.854;2024-03-25T02:40:42;1;1;1
55043;PMS5003;54902;50.420;18.854;2024-03-25T02:41:13;1;1;1
55043;PMS5003;54902;50.420;18.854;2024-03-25T02:41:44;1;1;1
55043;PMS5003;54902;50.420;18.854;2024-03-25T02:42:15;1;1;1
55043;PMS5003;54902;50.420;18.854;2024-03-25T02:42:46;1;1;1
55043;PMS5003;54902;50.420;18.854;2024-03-25T02:43:17;1;1;1
55043;PMS5003;54902;50.420;18.854;2024-03-25T02:43:52;1;1;1
55043;PMS5003;54902;50.420;18.854;2024-03-25T02:44:23;1;1;1
55043;PMS5003;54902;50.420;18.854;2024-03-25T02:44:55;1;1;1
55043;PMS5003;54902;50.420;18.854;2024-03-25T02:45:26;1;1;1
55043;PMS5003;54902;50.420;18.854;2024-03-25T02:45:57;1;1;1
55043;PMS5003;54902;50.420;18.854;2024-03-25T02:46:28;1;1;1
55043;PMS5003;54902;50.420;18.854;2024-03-25T02:46:59;1;1;1
55043;PMS5003;54902;50.420;18.854;2024-03-25T02:47:30;1;1;1
55043;PMS5003;54902;50.420;18.854;2024-03-25T02:48:01;1;1;1
55043;PMS5003;54902;50.420;18.854;2024-03-25T02:48:32;1;1;1
55043;PMS5003;54902;50.420;18.854;2024-03-25T02:49:03;1;1;1
55043;PMS5003;54902;50.420;18.854;2024-03-25T02:49:34;1;1;1
55043;PMS5003;54902;50.420;18.854;2024-03-25T02:50:05;1;1;1
55043;PMS5003;54902;50.420;18.854;2024-03-25T02:50:37;1;1;1
55043;PMS5003;54902;50.420;18.854;2024-03-25T02:51:07;1;1;1
55043;PMS5003;54902;50.420;18.854;2024-03-25T02:51:38;1;1;1
55043;PMS5003;54902;50.420;18.854;2024-03-25T02:52:09;1;1;1
55043;PMS5003;54902;50.420;18.854;2024-03-25T02:52:40;1;1;1
55043;PMS5003;54902;50.420;18.854;2024-03-25T02:53:11;1;1;1
55043;PMS5003;54902;50.420;18.854;2024-03-25T02:53:41;1;1;1
55043;PMS5003;54902;50.420;18.854;2024-03-25T02:54:12;1;1;1
55043;PMS5003;54902;50.420;18.854;2024-03-25T02:54:44;1;1;1
55043;PMS5003;54902;50.420;18.854;2024-03-25T02:55:16;1;1;1
55043;PMS5003;54902;50.420;18.854;2024-03-25T02:55:46;1;1;1
55043;PMS5003;54902;50.420;18.854;2024-03-25T02:56:17;1;1;1
55043;PMS5003;54902;50.420;18.854;2024-03-25T02:56:48;1;1;1
55043;PMS5003;54902;50.420;18.854;2024-03-25T02:57:19;2;2;1
55043;PMS5003;54902;50.420;18.854;2024-03-25T02:57:50;2;2;1
55043;PMS5003;54902;50.420;18.854;2024-03-25T02:58:20;2;2;1
55043;PMS5003;54902;50.420;18.854;2024-03-25T02:58:51;2;2;1
55043;PMS5003;54902;50.420;18.854;2024-03-25T02:59:22;2;2;1
55043;PMS5003;54902;50.420;18.854;2024-03-25T02:59:53;2;2;1
55043;PMS5003;54902;50.420;18.854;2024-03-25T03:00:24;2;2;1
55043;PMS5003;54902;50.420;18.854;2024-03-25T03:00:54;2;2;1
55043;PMS5003;54902;50.420;18.854;2024-03-25T03:01:25;2;2;1
55043;PMS5003;54902;50.420;18.854;2024-03-25T03:01:56;6;6;3
55043;PMS5003;54902;50.420;18.854;2024-03-25T03:02:27;6;6;3
55043;PMS5003;54902;50.420;18.854;2024-03-25T03:02:58;6;6;3
55043;PMS5003;54902;50.420;18.854;2024-03-25T03:03:29;6;6;3
55043;PMS5003;54902;50.420;18.854;2024-03-25T03:03:59;6;6;3
55043;PMS5003;54902;50.420;18.854;2024-03-25T03:04:30;6;6;3
55043;PMS5003;54902;50.420;18.854;2024-03-25T03:05:01;4;4;2
55043;PMS5003;54902;50.420;18.854;2024-03-25T03:05:34;4;4;2
55043;PMS5003;54902;50.420;18.854;2024-03-25T03:06:05;4;4;2
55043;PMS5003;54902;50.420;18.854;2024-03-25T03:06:36;4;4;2
55043;PMS5003;54902;50.420;18.854;2024-03-25T03:07:07;5;5;3
55043;PMS5003;54902;50.420;18.854;2024-03-25T03:07:38;5;5;3
55043;PMS5003;54902;50.420;18.854;2024-03-25T03:08:09;5;5;3
55043;PMS5003;54902;50.420;18.854;2024-03-25T03:08:40;5;5;3
55043;PMS5003;54902;50.420;18.854;2024-03-25T03:09:11;5;5;3
55043;PMS5003;54902;50.420;18.854;2024-03-25T03:09:42;5;5;3
55043;PMS5003;54902;50.420;18.854;2024-03-25T03:10:13;5;5;3
55043;PMS5003;54902;50.420;18.854;2024-03-25T03:10:44;5;5;3
55043;PMS5003;54902;50.420;18.854;2024-03-25T03:11:14;5;5;3
55043;PMS5003;54902;50.420;18.854;2024-03-25T03:11:45;5;5;3
55043;PMS5003;54902;50.420;18.854;2024-03-25T03:12:16;3;3;2
55043;PMS5003;54902;50.420;18.854;2024-03-25T03:12:47;3;3;2
55043;PMS5003;54902;50.420;18.854;2024-03-25T03:13:18;3;3;2
55043;PMS5003;54902;50.420;18.854;2024-03-25T03:13:48;3;3;2
55043;PMS5003;54902;50.420;18.854;2024-03-25T03:14:19;3;3;2
55043;PMS5003;54902;50.420;18.854;2024-03-25T03:14:51;3;3;2
55043;PMS5003;54902;50.420;18.854;2024-03-25T03:15:22;3;3;2
55043;PMS5003;54902;50.420;18.854;2024-03-25T03:15:52;3;3;2
55043;PMS5003;54902;50.420;18.854;2024-03-25T03:16:23;3;3;2
55043;PMS5003;54902;50.420;18.854;2024-03-25T03:16:54;3;3;2
55043;PMS5003;54902;50.420;18.854;2024-03-25T03:17:28;4;4;4
55043;PMS5003;54902;50.420;18.854;2024-03-25T03:17:59;4;4;4
55043;PMS5003;54902;50.420;18.854;2024-03-25T03:18:30;4;4;4
55043;PMS5003;54902;50.420;18.854;2024-03-25T03:19:01;4;4;4
55043;PMS5003;54902;50.420;18.854;2024-03-25T03:19:31;4;4;4
55043;PMS5003;54902;50.420;18.854;2024-03-25T03:20:03;4;4;4
55043;PMS5003;54902;50.420;18.854;2024-03-25T03:20:34;4;4;4
55043;PMS5003;54902;50.420;18.854;2024-03-25T03:21:05;4;4;4
55043;PMS5003;54902;50.420;18.854;2024-03-25T03:21:36;4;4;4
55043;PMS5003;54902;50.420;18.854;2024-03-25T03:22:07;4;4;4
55043;PMS5003;54902;50.420;18.854;2024-03-25T03:22:38;4;4;4
55043;PMS5003;54902;50.420;18.854;2024-03-25T03:23:08;4;4;4
55043;PMS5003;54902;50.420;18.854;2024-03-25T03:23:39;4;4;4
55043;PMS5003;54902;50.420;18.854;2024-03-25T03:24:10;4;4;4
55043;PMS5003;54902;50.420;18.854;2024-03-25T03:24:41;4;4;4
55043;PMS5003;54902;50.420;18.854;2024-03-25T03:25:12;4;4;4
55043;PMS5003;54902;50.420;18.854;2024-03-25T03:25:43;4;4;4
55043;PMS5003;54902;50.420;18.854;2024-03-25T03:26:13;4;4;4
55043;PMS5003;54902;50.420;18.854;2024-03-25T03:26:45;4;4;4